sensor_id;sensor_type;location;lat;lon;timestamp;P1;durP1;ratioP1;P2;durP2;ratioP2
16699;SDS011;8466;52.286;21.124;2023-03-14T00:01:10;19.90;;;18.40;;
16699;SDS011;8466;52.286;21.124;2023-03-14T00:03:40;18.33;;;16.90;;
16699;SDS011;8466;52.286;21.124;2023-03-14T00:06:09;19.00;;;17.33;;
16699;SDS011;8466;52.286;21.124;2023-03-14T00:08:38;15.83;;;14.40;;
16699;SDS011;8466;52.286;21.124;2023-03-14T00:11:07;15.97;;;14.60;;
16699;SDS011;8466;52.286;21.124;2023-03-14T00:13:37;16.67;;;15.23;;
16699;SDS011;8466;52.286;21.124;2023-03-14T00:16:07;17.70;;;16.10;;
16699;SDS011;8466;52.286;21.124;2023-03-14T00:18:38;15.63;;;14.33;;
16699;SDS011;8466;52.286;21.124;2023-03-14T00:21:08;17.37;;;15.87;;
16699;SDS011;8466;52.286;21.124;2023-03-14T00:23:38;18.77;;;17.27;;
16699;SDS011;8466;52.286;21.124;2023-03-14T00:26:09;17.07;;;15.67;;
16699;SDS011;8466;52.286;21.124;2023-03-14T00:28:39;16.17;;;14.67;;
16699;SDS011;8466;52.286;21.124;2023-03-14T00:31:11;17.37;;;15.87;;
16699;SDS011;8466;52.286;21.124;2023-03-14T00:33:41;15.43;;;13.83;;
16699;SDS011;8466;52.286;21.124;2023-03-14T00:36:11;15.37;;;14.07;;
16699;SDS011;8466;52.286;21.124;2023-03-14T00:38:43;14.10;;;12.80;;
16699;SDS011;8466;52.286;21.124;2023-03-14T00:41:14;14.00;;;12.70;;
16699;SDS011;8466;52.286;21.124;2023-03-14T00:43:44;15.50;;;14.20;;
16699;SDS011;8466;52.286;21.124;2023-03-14T00:46:15;16.60;;;13.40;;
16699;SDS011;8466;52.286;21.124;2023-03-14T00:48:44;15.17;;;13.67;;
16699;SDS011;8466;52.286;21.124;2023-03-14T00:51:13;16.50;;;15.00;;
16699;SDS011;8466;52.286;21.124;2023-03-14T00:53:42;16.40;;;15.03;;
16699;SDS011;8466;52.286;21.124;2023-03-14T00:56:12;16.10;;;14.70;;
16699;SDS011;8466;52.286;21.124;2023-03-14T00:58:41;17.87;;;16.47;;
16699;SDS011;8466;52.286;21.124;2023-03-14T01:01:10;14.40;;;13.20;;
16699;SDS011;8466;52.286;21.124;2023-03-14T01:03:43;16.17;;;14.77;;
16699;SDS011;8466;52.286;21.124;2023-03-14T01:06:13;13.30;;;12.17;;
16699;SDS011;8466;52.286;21.124;2023-03-14T01:08:42;16.53;;;15.13;;
16699;SDS011;8466;52.286;21.124;2023-03-14T01:11:13;16.27;;;14.87;;
16699;SDS011;8466;52.286;21.124;2023-03-14T01:13:43;15.50;;;14.20;;
16699;SDS011;8466;52.286;21.124;2023-03-14T01:16:13;15.83;;;14.33;;
16699;SDS011;8466;52.286;21.124;2023-03-14T01:18:44;16.37;;;14.97;;
16699;SDS011;8466;52.286;21.124;2023-03-14T01:21:14;18.57;;;17.13;;
16699;SDS011;8466;52.286;21.124;2023-03-14T01:23:45;18.00;;;16.67;;
16699;SDS011;8466;52.286;21.124;2023-03-14T01:26:16;15.43;;;14.23;;
16699;SDS011;8466;52.286;21.124;2023-03-14T01:28:47;14.30;;;12.90;;
16699;SDS011;8466;52.286;21.124;2023-03-14T01:31:17;14.00;;;12.67;;
16699;SDS011;8466;52.286;21.124;2023-03-14T01:33:47;12.70;;;11.60;;
16699;SDS011;8466;52.286;21.124;2023-03-14T01:36:19;15.43;;;14.17;;
16699;SDS011;8466;52.286;21.124;2023-03-14T01:38:48;15.93;;;14.57;;
16699;SDS011;8466;52.286;21.124;2023-03-14T01:41:18;15.33;;;14.03;;
16699;SDS011;8466;52.286;21.124;2023-03-14T01:43:48;15.10;;;13.80;;
16699;SDS011;8466;52.286;21.124;2023-03-14T01:46:28;17.37;;;15.83;;
16699;SDS011;8466;52.286;21.124;2023-03-14T01:49:24;15.60;;;14.30;;
16699;SDS011;8466;52.286;21.124;2023-03-14T01:51:56;14.37;;;13.07;;
16699;SDS011;8466;52.286;21.124;2023-03-14T01:54:27;17.27;;;15.70;;
16699;SDS011;8466;52.286;21.124;2023-03-14T01:57:01;16.23;;;14.87;;
16699;SDS011;8466;52.286;21.124;2023-03-14T01:59:34;15.03;;;13.83;;
16699;SDS011;8466;52.286;21.124;2023-03-14T02:02:04;16.33;;;15.00;;
16699;SDS011;8466;52.286;21.124;2023-03-14T02:04:37;16.30;;;15.10;;
16699;SDS011;8466;52.286;21.124;2023-03-14T02:07:22;19.03;;;17.57;;
16699;SDS011;8466;52.286;21.124;2023-03-14T02:09:55;19.43;;;18.00;;
16699;SDS011;8466;52.286;21.124;2023-03-14T02:12:24;18.60;;;17.10;;
16699;SDS011;8466;52.286;21.124;2023-03-14T02:14:54;18.87;;;17.27;;
16699;SDS011;8466;52.286;21.124;2023-03-14T02:17:23;17.20;;;15.83;;
16699;SDS011;8466;52.286;21.124;2023-03-14T02:19:57;16.60;;;15.47;;
16699;SDS011;8466;52.286;21.124;2023-03-14T02:22:35;14.93;;;13.60;;
16699;SDS011;8466;52.286;21.124;2023-03-14T02:25:08;15.77;;;14.57;;
16699;SDS011;8466;52.286;21.124;2023-03-14T02:27:42;18.53;;;16.87;;
16699;SDS011;8466;52.286;21.124;2023-03-14T02:30:12;16.87;;;15.43;;
16699;SDS011;8466;52.286;21.124;2023-03-14T02:32:45;17.00;;;15.70;;
16699;SDS011;8466;52.286;21.124;2023-03-14T02:35:17;16.37;;;14.90;;
16699;SDS011;8466;52.286;21.124;2023-03-14T02:37:49;14.93;;;13.53;;
16699;SDS011;8466;52.286;21.124;2023-03-14T02:40:21;16.33;;;15.13;;
16699;SDS011;8466;52.286;21.124;2023-03-14T02:42:51;13.83;;;12.53;;
16699;SDS011;8466;52.286;21.124;2023-03-14T02:45:31;12.13;;;11.13;;
16699;SDS011;8466;52.286;21.124;2023-03-14T02:48:04;13.13;;;11.93;;
16699;SDS011;8466;52.286;21.124;2023-03-14T02:50:36;42.42;;;39.92;;
16699;SDS011;8466;52.286;21.124;2023-03-14T02:53:06;20.43;;;19.07;;
16699;SDS011;8466;52.286;21.124;2023-03-14T02:55:35;11.03;;;10.13;;
16699;SDS011;8466;52.286;21.124;2023-03-14T02:58:05;12.27;;;11.27;;
16699;SDS011;8466;52.286;21.124;2023-03-14T03:00:34;11.33;;;10.43;;
16699;SDS011;8466;52.286;21.124;2023-03-14T03:03:03;15.30;;;13.93;;
16699;SDS011;8466;52.286;21.124;2023-03-14T03:05:32;13.17;;;12.17;;
16699;SDS011;8466;52.286;21.124;2023-03-14T03:08:01;15.33;;;14.13;;
16699;SDS011;8466;52.286;21.124;2023-03-14T03:10:30;15.40;;;14.23;;
16699;SDS011;8466;52.286;21.124;2023-03-14T03:12:59;18.00;;;16.60;;
16699;SDS011;8466;52.286;21.124;2023-03-14T03:15:30;17.17;;;15.90;;
16699;SDS011;8466;52.286;21.124;2023-03-14T03:17:58;17.47;;;16.07;;
16699;SDS011;8466;52.286;21.124;2023-03-14T03:20:27;19.17;;;17.67;;
16699;SDS011;8466;52.286;21.124;2023-03-14T03:22:56;15.37;;;14.07;;
16699;SDS011;8466;52.286;21.124;2023-03-14T03:25:25;19.17;;;17.77;;
16699;SDS011;8466;52.286;21.124;2023-03-14T03:27:54;18.63;;;16.97;;
16699;SDS011;8466;52.286;21.124;2023-03-14T03:30:23;16.03;;;14.93;;
16699;SDS011;8466;52.286;21.124;2023-03-14T03:32:53;18.40;;;16.97;;
16699;SDS011;8466;52.286;21.124;2023-03-14T03:35:22;19.30;;;17.97;;
16699;SDS011;8466;52.286;21.124;2023-03-14T03:37:50;23.90;;;21.93;;
16699;SDS011;8466;52.286;21.124;2023-03-14T03:40:19;19.03;;;17.57;;
16699;SDS011;8466;52.286;21.124;2023-03-14T03:42:48;19.90;;;18.43;;
16699;SDS011;8466;52.286;21.124;2023-03-14T03:45:16;15.67;;;14.50;;
16699;SDS011;8466;52.286;21.124;2023-03-14T03:47:45;17.70;;;16.37;;
16699;SDS011;8466;52.286;21.124;2023-03-14T03:50:16;15.87;;;14.73;;
16699;SDS011;8466;52.286;21.124;2023-03-14T03:52:44;14.47;;;13.27;;
16699;SDS011;8466;52.286;21.124;2023-03-14T03:55:13;14.90;;;13.50;;
16699;SDS011;8466;52.286;21.124;2023-03-14T03:57:43;13.20;;;12.10;;
16699;SDS011;8466;52.286;21.124;2023-03-14T04:00:12;12.70;;;11.60;;
16699;SDS011;8466;52.286;21.124;2023-03-14T04:02:41;12.00;;;11.10;;
16699;SDS011;8466;52.286;21.124;2023-03-14T04:05:10;11.40;;;10.30;;
16699;SDS011;8466;52.286;21.124;2023-03-14T04:07:40;12.17;;;11.20;;
16699;SDS011;8466;52.286;21.124;2023-03-14T04:10:09;12.43;;;10.97;;
16699;SDS011;8466;52.286;21.124;2023-03-14T04:12:38;13.60;;;10.30;;
16699;SDS011;8466;52.286;21.124;2023-03-14T04:15:07;11.63;;;10.57;;
16699;SDS011;8466;52.286;21.124;2023-03-14T04:17:36;11.23;;;10.33;;
16699;SDS011;8466;52.286;21.124;2023-03-14T04:20:05;11.03;;;10.13;;
16699;SDS011;8466;52.286;21.124;2023-03-14T04:22:37;10.97;;;9.60;;
16699;SDS011;8466;52.286;21.124;2023-03-14T04:25:10;11.33;;;10.43;;
16699;SDS011;8466;52.286;21.124;2023-03-14T04:27:38;12.40;;;11.30;;
16699;SDS011;8466;52.286;21.124;2023-03-14T04:30:08;11.30;;;10.27;;
16699;SDS011;8466;52.286;21.124;2023-03-14T04:32:38;10.40;;;9.50;;
16699;SDS011;8466;52.286;21.124;2023-03-14T04:35:07;12.00;;;10.80;;
16699;SDS011;8466;52.286;21.124;2023-03-14T04:37:36;11.27;;;10.17;;
16699;SDS011;8466;52.286;21.124;2023-03-14T04:40:07;13.10;;;12.13;;
16699;SDS011;8466;52.286;21.124;2023-03-14T04:42:36;12.33;;;11.47;;
16699;SDS011;8466;52.286;21.124;2023-03-14T04:45:06;12.97;;;11.87;;
16699;SDS011;8466;52.286;21.124;2023-03-14T04:47:35;13.77;;;12.67;;
16699;SDS011;8466;52.286;21.124;2023-03-14T04:50:04;11.57;;;10.57;;
16699;SDS011;8466;52.286;21.124;2023-03-14T04:52:33;10.47;;;9.47;;
16699;SDS011;8466;52.286;21.124;2023-03-14T04:55:03;11.43;;;10.47;;
16699;SDS011;8466;52.286;21.124;2023-03-14T04:57:33;12.03;;;10.93;;
16699;SDS011;8466;52.286;21.124;2023-03-14T05:00:02;10.83;;;10.03;;
16699;SDS011;8466;52.286;21.124;2023-03-14T05:02:34;11.17;;;10.10;;
16699;SDS011;8466;52.286;21.124;2023-03-14T05:05:03;12.70;;;11.70;;
16699;SDS011;8466;52.286;21.124;2023-03-14T05:07:32;13.10;;;12.00;;
16699;SDS011;8466;52.286;21.124;2023-03-14T05:10:01;12.07;;;11.07;;
16699;SDS011;8466;52.286;21.124;2023-03-14T05:12:29;12.10;;;11.10;;
16699;SDS011;8466;52.286;21.124;2023-03-14T05:14:59;13.87;;;12.77;;
16699;SDS011;8466;52.286;21.124;2023-03-14T05:17:28;13.47;;;12.50;;
16699;SDS011;8466;52.286;21.124;2023-03-14T05:19:56;10.60;;;9.60;;
16699;SDS011;8466;52.286;21.124;2023-03-14T05:22:25;11.77;;;10.53;;
16699;SDS011;8466;52.286;21.124;2023-03-14T05:24:54;12.03;;;11.10;;
16699;SDS011;8466;52.286;21.124;2023-03-14T05:27:25;11.50;;;10.70;;
16699;SDS011;8466;52.286;21.124;2023-03-14T05:29:53;11.87;;;10.10;;
16699;SDS011;8466;52.286;21.124;2023-03-14T05:32:23;11.57;;;10.37;;
16699;SDS011;8466;52.286;21.124;2023-03-14T05:34:52;10.70;;;9.90;;
16699;SDS011;8466;52.286;21.124;2023-03-14T05:37:24;12.63;;;11.53;;
16699;SDS011;8466;52.286;21.124;2023-03-14T05:39:53;13.20;;;12.07;;
16699;SDS011;8466;52.286;21.124;2023-03-14T05:42:21;13.97;;;12.77;;
16699;SDS011;8466;52.286;21.124;2023-03-14T05:44:50;14.98;;;13.77;;
16699;SDS011;8466;52.286;21.124;2023-03-14T05:47:20;19.53;;;18.10;;
16699;SDS011;8466;52.286;21.124;2023-03-14T05:49:50;19.92;;;18.45;;
16699;SDS011;8466;52.286;21.124;2023-03-14T05:52:19;11.45;;;10.50;;
16699;SDS011;8466;52.286;21.124;2023-03-14T05:54:48;13.07;;;11.07;;
16699;SDS011;8466;52.286;21.124;2023-03-14T05:57:17;11.40;;;10.43;;
16699;SDS011;8466;52.286;21.124;2023-03-14T05:59:46;11.27;;;10.37;;
16699;SDS011;8466;52.286;21.124;2023-03-14T06:02:14;14.37;;;13.27;;
16699;SDS011;8466;52.286;21.124;2023-03-14T06:04:43;12.97;;;11.67;;
16699;SDS011;8466;52.286;21.124;2023-03-14T06:07:13;18.45;;;17.10;;
16699;SDS011;8466;52.286;21.124;2023-03-14T06:09:42;15.57;;;14.47;;
16699;SDS011;8466;52.286;21.124;2023-03-14T06:12:11;10.37;;;9.57;;
16699;SDS011;8466;52.286;21.124;2023-03-14T06:14:39;19.25;;;17.98;;
16699;SDS011;8466;52.286;21.124;2023-03-14T06:17:08;19.50;;;18.20;;
16699;SDS011;8466;52.286;21.124;2023-03-14T06:19:37;13.20;;;12.30;;
16699;SDS011;8466;52.286;21.124;2023-03-14T06:22:05;9.57;;;8.77;;
16699;SDS011;8466;52.286;21.124;2023-03-14T06:24:35;9.80;;;9.00;;
16699;SDS011;8466;52.286;21.124;2023-03-14T06:27:04;9.77;;;9.03;;
16699;SDS011;8466;52.286;21.124;2023-03-14T06:29:33;8.77;;;8.07;;
16699;SDS011;8466;52.286;21.124;2023-03-14T06:32:02;9.90;;;9.10;;
16699;SDS011;8466;52.286;21.124;2023-03-14T06:34:31;10.10;;;9.30;;
16699;SDS011;8466;52.286;21.124;2023-03-14T06:37:00;10.20;;;9.40;;
16699;SDS011;8466;52.286;21.124;2023-03-14T06:39:28;10.83;;;10.00;;
16699;SDS011;8466;52.286;21.124;2023-03-14T06:41:59;13.17;;;11.90;;
16699;SDS011;8466;52.286;21.124;2023-03-14T06:44:28;13.43;;;12.43;;
16699;SDS011;8466;52.286;21.124;2023-03-14T06:46:57;10.90;;;10.20;;
16699;SDS011;8466;52.286;21.124;2023-03-14T06:49:26;11.43;;;10.70;;
16699;SDS011;8466;52.286;21.124;2023-03-14T06:51:54;12.07;;;11.07;;
16699;SDS011;8466;52.286;21.124;2023-03-14T06:54:23;12.77;;;11.77;;
16699;SDS011;8466;52.286;21.124;2023-03-14T06:56:52;14.60;;;13.60;;
16699;SDS011;8466;52.286;21.124;2023-03-14T06:59:22;13.70;;;12.70;;
16699;SDS011;8466;52.286;21.124;2023-03-14T07:01:51;14.10;;;13.00;;
16699;SDS011;8466;52.286;21.124;2023-03-14T07:04:20;14.60;;;13.40;;
16699;SDS011;8466;52.286;21.124;2023-03-14T07:06:48;23.75;;;22.30;;
16699;SDS011;8466;52.286;21.124;2023-03-14T07:09:17;20.73;;;19.17;;
16699;SDS011;8466;52.286;21.124;2023-03-14T07:11:46;15.50;;;14.50;;
16699;SDS011;8466;52.286;21.124;2023-03-14T07:14:14;22.83;;;21.33;;
16699;SDS011;8466;52.286;21.124;2023-03-14T07:16:47;22.67;;;21.27;;
16699;SDS011;8466;52.286;21.124;2023-03-14T07:19:16;26.60;;;24.90;;
16699;SDS011;8466;52.286;21.124;2023-03-14T07:21:45;25.47;;;23.50;;
16699;SDS011;8466;52.286;21.124;2023-03-14T07:24:13;20.73;;;19.43;;
16699;SDS011;8466;52.286;21.124;2023-03-14T07:26:42;18.60;;;17.33;;
16699;SDS011;8466;52.286;21.124;2023-03-14T07:29:11;19.90;;;18.53;;
16699;SDS011;8466;52.286;21.124;2023-03-14T07:31:39;20.27;;;18.90;;
16699;SDS011;8466;52.286;21.124;2023-03-14T07:34:10;20.00;;;18.70;;
16699;SDS011;8466;52.286;21.124;2023-03-14T07:36:38;20.13;;;18.73;;
16699;SDS011;8466;52.286;21.124;2023-03-14T07:39:07;21.27;;;19.67;;
16699;SDS011;8466;52.286;21.124;2023-03-14T07:41:36;22.23;;;20.73;;
16699;SDS011;8466;52.286;21.124;2023-03-14T07:44:05;24.23;;;22.53;;
16699;SDS011;8466;52.286;21.124;2023-03-14T07:46:33;23.67;;;22.00;;
16699;SDS011;8466;52.286;21.124;2023-03-14T07:49:02;26.13;;;24.43;;
16699;SDS011;8466;52.286;21.124;2023-03-14T07:51:32;23.13;;;21.50;;
16699;SDS011;8466;52.286;21.124;2023-03-14T07:54:01;23.90;;;22.47;;
16699;SDS011;8466;52.286;21.124;2023-03-14T07:56:29;25.53;;;23.83;;
16699;SDS011;8466;52.286;21.124;2023-03-14T07:58:58;24.07;;;22.57;;
16699;SDS011;8466;52.286;21.124;2023-03-14T08:01:27;21.73;;;20.33;;
16699;SDS011;8466;52.286;21.124;2023-03-14T08:03:56;20.93;;;19.63;;
16699;SDS011;8466;52.286;21.124;2023-03-14T08:06:25;20.13;;;18.83;;
16699;SDS011;8466;52.286;21.124;2023-03-14T08:08:55;20.27;;;18.97;;
16699;SDS011;8466;52.286;21.124;2023-03-14T08:11:24;21.30;;;20.00;;
16699;SDS011;8466;52.286;21.124;2023-03-14T08:13:53;22.30;;;20.90;;
16699;SDS011;8466;52.286;21.124;2023-03-14T08:16:22;20.43;;;19.03;;
16699;SDS011;8466;52.286;21.124;2023-03-14T08:18:51;23.43;;;22.03;;
16699;SDS011;8466;52.286;21.124;2023-03-14T08:21:19;19.67;;;18.33;;
16699;SDS011;8466;52.286;21.124;2023-03-14T08:23:48;20.93;;;19.37;;
16699;SDS011;8466;52.286;21.124;2023-03-14T08:26:18;16.30;;;15.23;;
16699;SDS011;8466;52.286;21.124;2023-03-14T08:28:47;17.33;;;16.17;;
16699;SDS011;8466;52.286;21.124;2023-03-14T08:31:17;19.47;;;18.00;;
16699;SDS011;8466;52.286;21.124;2023-03-14T08:33:46;17.60;;;16.30;;
16699;SDS011;8466;52.286;21.124;2023-03-14T08:36:15;17.37;;;16.27;;
16699;SDS011;8466;52.286;21.124;2023-03-14T08:38:47;21.67;;;20.20;;
16699;SDS011;8466;52.286;21.124;2023-03-14T08:41:17;12.17;;;11.23;;
16699;SDS011;8466;52.286;21.124;2023-03-14T08:43:46;11.37;;;10.33;;
16699;SDS011;8466;52.286;21.124;2023-03-14T08:46:18;48.40;;;45.73;;
16699;SDS011;8466;52.286;21.124;2023-03-14T08:48:46;58.97;;;55.70;;
16699;SDS011;8466;52.286;21.124;2023-03-14T08:51:15;37.60;;;35.10;;
16699;SDS011;8466;52.286;21.124;2023-03-14T08:53:44;24.77;;;23.03;;
16699;SDS011;8466;52.286;21.124;2023-03-14T08:56:13;19.90;;;18.70;;
16699;SDS011;8466;52.286;21.124;2023-03-14T08:58:43;17.40;;;16.30;;
16699;SDS011;8466;52.286;21.124;2023-03-14T09:01:12;18.10;;;16.97;;
16699;SDS011;8466;52.286;21.124;2023-03-14T09:03:40;19.17;;;17.97;;
16699;SDS011;8466;52.286;21.124;2023-03-14T09:06:09;17.90;;;16.73;;
16699;SDS011;8466;52.286;21.124;2023-03-14T09:08:38;11.37;;;10.57;;
16699;SDS011;8466;52.286;21.124;2023-03-14T09:11:19;11.63;;;10.93;;
16699;SDS011;8466;52.286;21.124;2023-03-14T09:13:49;14.10;;;12.93;;
16699;SDS011;8466;52.286;21.124;2023-03-14T09:16:18;12.50;;;11.33;;
16699;SDS011;8466;52.286;21.124;2023-03-14T09:18:47;16.17;;;14.97;;
16699;SDS011;8466;52.286;21.124;2023-03-14T09:21:15;13.83;;;12.93;;
16699;SDS011;8466;52.286;21.124;2023-03-14T09:23:46;18.03;;;16.73;;
16699;SDS011;8466;52.286;21.124;2023-03-14T09:26:15;14.73;;;13.43;;
16699;SDS011;8466;52.286;21.124;2023-03-14T09:28:44;13.47;;;12.53;;
16699;SDS011;8466;52.286;21.124;2023-03-14T09:31:15;15.03;;;13.93;;
16699;SDS011;8466;52.286;21.124;2023-03-14T09:33:43;14.50;;;13.33;;
16699;SDS011;8466;52.286;21.124;2023-03-14T09:36:15;14.53;;;13.40;;
16699;SDS011;8466;52.286;21.124;2023-03-14T09:38:43;17.07;;;15.67;;
16699;SDS011;8466;52.286;21.124;2023-03-14T09:41:13;16.23;;;15.27;;
16699;SDS011;8466;52.286;21.124;2023-03-14T09:44:08;15.70;;;14.68;;
16699;SDS011;8466;52.286;21.124;2023-03-14T09:46:44;23.08;;;21.55;;
16699;SDS011;8466;52.286;21.124;2023-03-14T09:49:16;22.55;;;21.10;;
16699;SDS011;8466;52.286;21.124;2023-03-14T09:51:49;32.03;;;29.88;;
16699;SDS011;8466;52.286;21.124;2023-03-14T09:54:26;39.13;;;36.80;;
16699;SDS011;8466;52.286;21.124;2023-03-14T09:57:02;37.53;;;35.33;;
16699;SDS011;8466;52.286;21.124;2023-03-14T09:59:32;39.83;;;37.38;;
16699;SDS011;8466;52.286;21.124;2023-03-14T10:02:14;37.75;;;35.42;;
16699;SDS011;8466;52.286;21.124;2023-03-14T10:04:48;33.03;;;31.00;;
16699;SDS011;8466;52.286;21.124;2023-03-14T10:07:23;31.30;;;29.40;;
16699;SDS011;8466;52.286;21.124;2023-03-14T10:10:08;30.33;;;28.13;;
16699;SDS011;8466;52.286;21.124;2023-03-14T10:12:40;29.30;;;27.65;;
16699;SDS011;8466;52.286;21.124;2023-03-14T10:15:12;22.65;;;21.25;;
16699;SDS011;8466;52.286;21.124;2023-03-14T10:17:48;27.95;;;26.20;;
16699;SDS011;8466;52.286;21.124;2023-03-14T10:20:29;20.45;;;18.85;;
16699;SDS011;8466;52.286;21.124;2023-03-14T10:23:03;20.73;;;19.52;;
16699;SDS011;8466;52.286;21.124;2023-03-14T10:25:57;20.10;;;18.77;;
16699;SDS011;8466;52.286;21.124;2023-03-14T10:28:29;24.17;;;22.85;;
16699;SDS011;8466;52.286;21.124;2023-03-14T10:31:04;24.25;;;22.70;;
16699;SDS011;8466;52.286;21.124;2023-03-14T10:33:38;15.40;;;14.50;;
16699;SDS011;8466;52.286;21.124;2023-03-14T10:36:15;25.70;;;24.15;;
16699;SDS011;8466;52.286;21.124;2023-03-14T10:38:56;29.50;;;27.70;;
16699;SDS011;8466;52.286;21.124;2023-03-14T10:41:48;28.45;;;26.85;;
16699;SDS011;8466;52.286;21.124;2023-03-14T10:44:27;29.13;;;27.17;;
16699;SDS011;8466;52.286;21.124;2023-03-14T10:47:24;23.90;;;22.05;;
16699;SDS011;8466;52.286;21.124;2023-03-14T10:50:21;22.55;;;20.98;;
16699;SDS011;8466;52.286;21.124;2023-03-14T10:53:03;25.00;;;23.48;;
16699;SDS011;8466;52.286;21.124;2023-03-14T10:55:39;21.00;;;19.63;;
16699;SDS011;8466;52.286;21.124;2023-03-14T10:58:21;23.73;;;22.25;;
16699;SDS011;8466;52.286;21.124;2023-03-14T11:00:57;25.35;;;23.80;;
16699;SDS011;8466;52.286;21.124;2023-03-14T11:03:38;21.60;;;20.40;;
16699;SDS011;8466;52.286;21.124;2023-03-14T11:06:14;25.52;;;23.73;;
16699;SDS011;8466;52.286;21.124;2023-03-14T11:09:04;24.77;;;23.38;;
16699;SDS011;8466;52.286;21.124;2023-03-14T11:12:20;19.60;;;18.30;;
16699;SDS011;8466;52.286;21.124;2023-03-14T11:15:38;17.67;;;16.30;;
16699;SDS011;8466;52.286;21.124;2023-03-14T11:21:36;20.27;;;18.98;;
16699;SDS011;8466;52.286;21.124;2023-03-14T11:24:28;23.50;;;22.08;;
16699;SDS011;8466;52.286;21.124;2023-03-14T11:27:51;19.17;;;17.65;;
16699;SDS011;8466;52.286;21.124;2023-03-14T11:30:31;19.08;;;17.75;;
16699;SDS011;8466;52.286;21.124;2023-03-14T11:33:08;20.83;;;19.55;;
16699;SDS011;8466;52.286;21.124;2023-03-14T11:35:45;21.38;;;20.13;;
16699;SDS011;8466;52.286;21.124;2023-03-14T11:38:24;24.95;;;23.30;;
16699;SDS011;8466;52.286;21.124;2023-03-14T11:40:58;22.50;;;21.08;;
16699;SDS011;8466;52.286;21.124;2023-03-14T11:43:28;22.70;;;20.88;;
16699;SDS011;8466;52.286;21.124;2023-03-14T11:46:04;21.38;;;19.92;;
16699;SDS011;8466;52.286;21.124;2023-03-14T11:48:41;24.80;;;23.20;;
16699;SDS011;8466;52.286;21.124;2023-03-14T11:51:15;20.42;;;18.98;;
16699;SDS011;8466;52.286;21.124;2023-03-14T11:53:53;23.83;;;22.35;;
16699;SDS011;8466;52.286;21.124;2023-03-14T11:56:29;24.38;;;22.77;;
16699;SDS011;8466;52.286;21.124;2023-03-14T11:59:04;22.25;;;20.50;;
16699;SDS011;8466;52.286;21.124;2023-03-14T12:01:44;23.92;;;22.23;;
16699;SDS011;8466;52.286;21.124;2023-03-14T12:04:22;21.48;;;20.05;;
16699;SDS011;8466;52.286;21.124;2023-03-14T12:07:12;19.33;;;18.13;;
16699;SDS011;8466;52.286;21.124;2023-03-14T12:09:49;15.47;;;14.37;;
16699;SDS011;8466;52.286;21.124;2023-03-14T12:12:20;19.48;;;18.10;;
16699;SDS011;8466;52.286;21.124;2023-03-14T12:14:53;21.45;;;19.90;;
16699;SDS011;8466;52.286;21.124;2023-03-14T12:17:27;22.60;;;20.95;;
16699;SDS011;8466;52.286;21.124;2023-03-14T12:20:05;20.77;;;18.95;;
16699;SDS011;8466;52.286;21.124;2023-03-14T12:22:43;23.08;;;21.50;;
16699;SDS011;8466;52.286;21.124;2023-03-14T12:25:18;23.58;;;22.17;;
16699;SDS011;8466;52.286;21.124;2023-03-14T12:27:49;27.90;;;25.90;;
16699;SDS011;8466;52.286;21.124;2023-03-14T12:30:33;16.00;;;14.68;;
16699;SDS011;8466;52.286;21.124;2023-03-14T12:35:57;17.95;;;16.40;;
16699;SDS011;8466;52.286;21.124;2023-03-14T12:41:51;21.27;;;19.87;;
16699;SDS011;8466;52.286;21.124;2023-03-14T12:50:36;22.67;;;21.10;;
16699;SDS011;8466;52.286;21.124;2023-03-14T12:53:52;22.98;;;21.33;;
16699;SDS011;8466;52.286;21.124;2023-03-14T12:56:51;22.20;;;20.42;;
16699;SDS011;8466;52.286;21.124;2023-03-14T12:59:46;21.08;;;19.00;;
16699;SDS011;8466;52.286;21.124;2023-03-14T13:02:23;19.27;;;17.75;;
16699;SDS011;8466;52.286;21.124;2023-03-14T13:05:00;24.43;;;22.57;;
16699;SDS011;8466;52.286;21.124;2023-03-14T13:10:47;21.13;;;19.63;;
16699;SDS011;8466;52.286;21.124;2023-03-14T13:17:42;20.77;;;19.13;;
16699;SDS011;8466;52.286;21.124;2023-03-14T13:20:48;22.03;;;20.43;;
16699;SDS011;8466;52.286;21.124;2023-03-14T13:30:23;27.03;;;24.93;;
16699;SDS011;8466;52.286;21.124;2023-03-14T13:33:34;26.00;;;24.00;;
16699;SDS011;8466;52.286;21.124;2023-03-14T13:36:09;23.20;;;21.27;;
16699;SDS011;8466;52.286;21.124;2023-03-14T13:38:41;23.40;;;21.60;;
16699;SDS011;8466;52.286;21.124;2023-03-14T13:41:13;40.63;;;38.05;;
16699;SDS011;8466;52.286;21.124;2023-03-14T13:43:43;36.20;;;33.83;;
16699;SDS011;8466;52.286;21.124;2023-03-14T13:46:13;30.87;;;28.90;;
16699;SDS011;8466;52.286;21.124;2023-03-14T13:48:47;38.43;;;35.93;;
16699;SDS011;8466;52.286;21.124;2023-03-14T13:51:18;33.87;;;31.63;;
16699;SDS011;8466;52.286;21.124;2023-03-14T13:53:57;31.07;;;28.80;;
16699;SDS011;8466;52.286;21.124;2023-03-14T13:56:30;33.30;;;31.03;;
16699;SDS011;8466;52.286;21.124;2023-03-14T13:59:00;25.00;;;23.07;;
16699;SDS011;8466;52.286;21.124;2023-03-14T14:01:37;35.30;;;32.70;;
16699;SDS011;8466;52.286;21.124;2023-03-14T14:07:13;30.43;;;28.47;;
16699;SDS011;8466;52.286;21.124;2023-03-14T14:09:46;38.67;;;36.08;;
16699;SDS011;8466;52.286;21.124;2023-03-14T14:12:20;40.63;;;38.03;;
16699;SDS011;8466;52.286;21.124;2023-03-14T14:15:10;31.10;;;28.83;;
16699;SDS011;8466;52.286;21.124;2023-03-14T14:17:47;30.13;;;28.03;;
16699;SDS011;8466;52.286;21.124;2023-03-14T14:20:26;32.60;;;30.23;;
16699;SDS011;8466;52.286;21.124;2023-03-14T14:23:06;39.23;;;36.93;;
16699;SDS011;8466;52.286;21.124;2023-03-14T14:25:42;39.40;;;36.97;;
16699;SDS011;8466;52.286;21.124;2023-03-14T14:28:17;62.27;;;58.57;;
16699;SDS011;8466;52.286;21.124;2023-03-14T14:31:02;53.77;;;50.50;;
16699;SDS011;8466;52.286;21.124;2023-03-14T14:33:56;54.13;;;51.03;;
16699;SDS011;8466;52.286;21.124;2023-03-14T14:36:32;72.73;;;68.60;;
16699;SDS011;8466;52.286;21.124;2023-03-14T14:39:11;24.93;;;23.43;;
16699;SDS011;8466;52.286;21.124;2023-03-14T14:41:49;18.53;;;17.03;;
16699;SDS011;8466;52.286;21.124;2023-03-14T14:44:26;29.30;;;27.27;;
16699;SDS011;8466;52.286;21.124;2023-03-14T14:46:58;28.80;;;26.97;;
16699;SDS011;8466;52.286;21.124;2023-03-14T14:49:28;22.80;;;21.13;;
16699;SDS011;8466;52.286;21.124;2023-03-14T14:52:02;41.40;;;38.60;;
16699;SDS011;8466;52.286;21.124;2023-03-14T14:54:37;40.43;;;37.97;;
16699;SDS011;8466;52.286;21.124;2023-03-14T14:57:17;29.93;;;28.10;;
16699;SDS011;8466;52.286;21.124;2023-03-14T14:59:48;23.53;;;22.00;;
16699;SDS011;8466;52.286;21.124;2023-03-14T15:02:30;20.57;;;19.17;;
16699;SDS011;8466;52.286;21.124;2023-03-14T15:05:04;19.43;;;17.93;;
16699;SDS011;8466;52.286;21.124;2023-03-14T15:07:38;25.57;;;23.87;;
16699;SDS011;8466;52.286;21.124;2023-03-14T15:10:09;22.13;;;20.47;;
16699;SDS011;8466;52.286;21.124;2023-03-14T15:12:42;35.23;;;32.77;;
16699;SDS011;8466;52.286;21.124;2023-03-14T15:15:11;33.07;;;30.87;;
16699;SDS011;8466;52.286;21.124;2023-03-14T15:17:41;28.40;;;26.50;;
16699;SDS011;8466;52.286;21.124;2023-03-14T15:20:13;32.67;;;30.53;;
16699;SDS011;8466;52.286;21.124;2023-03-14T15:22:46;16.50;;;15.20;;
16699;SDS011;8466;52.286;21.124;2023-03-14T15:25:15;23.60;;;21.80;;
16699;SDS011;8466;52.286;21.124;2023-03-14T15:28:08;19.43;;;17.93;;